createdAt,value
2022-09-16T00:00:13.498Z,5.80
2022-09-16T00:01:13.570Z,7.30
2022-09-16T00:02:13.518Z,7.40
2022-09-16T00:03:13.416Z,3.10
2022-09-16T00:04:13.397Z,4.90
2022-09-16T00:05:13.388Z,7.60
2022-09-16T00:06:13.441Z,4.60
2022-09-16T00:07:13.444Z,5.50
2022-09-16T00:08:13.357Z,6.10
2022-09-16T00:09:13.334Z,6.10
2022-09-16T00:10:13.364Z,8.20
2022-09-16T00:11:13.364Z,7.50
2022-09-16T00:12:13.294Z,5.40
2022-09-16T00:13:13.260Z,6.60
2022-09-16T00:14:13.295Z,4.30
2022-09-16T00:15:13.830Z,4.90
2022-09-16T00:16:13.395Z,4.50
2022-09-16T00:17:13.276Z,4.90
2022-09-16T00:18:13.237Z,4.90
2022-09-16T00:19:13.260Z,5.20
2022-09-16T00:20:13.240Z,4.70
2022-09-16T00:21:13.218Z,8.60
2022-09-16T00:22:13.229Z,4.50
2022-09-16T00:23:13.161Z,5.70
2022-09-16T00:24:13.199Z,5.90
2022-09-16T00:25:13.159Z,5.90
2022-09-16T00:26:13.109Z,4.50
2022-09-16T00:27:13.113Z,8.70
2022-09-16T00:28:13.171Z,4.00
2022-09-16T00:29:13.157Z,6.50
2022-09-16T00:30:13.181Z,7.70
2022-09-16T00:31:13.194Z,5.20
2022-09-16T00:32:13.073Z,6.20
2022-09-16T00:33:13.045Z,5.60
2022-09-16T00:34:13.111Z,6.60
2022-09-16T00:35:13.095Z,4.30
2022-09-16T00:36:13.098Z,4.90
2022-09-16T00:37:13.050Z,6.70
2022-09-16T00:38:12.983Z,6.30
2022-09-16T00:39:13.021Z,5.40
2022-09-16T00:40:13.055Z,8.50
2022-09-16T00:41:13.126Z,6.00
2022-09-16T00:42:13.106Z,4.60
2022-09-16T00:43:13.099Z,7.50
2022-09-16T00:44:13.181Z,4.50
2022-09-16T00:45:13.178Z,7.30
2022-09-16T00:46:13.060Z,8.00
2022-09-16T00:47:13.099Z,9.00
2022-09-16T00:48:13.223Z,8.60
2022-09-16T00:49:13.117Z,6.80
2022-09-16T00:50:13.174Z,6.80
2022-09-16T00:51:13.059Z,6.20
2022-09-16T00:52:13.034Z,6.40
2022-09-16T00:53:13.052Z,7.30
2022-09-16T00:54:12.911Z,4.50
2022-09-16T00:55:13.139Z,7.40
2022-09-16T00:56:13.025Z,6.00
2022-09-16T00:57:12.984Z,11.10
2022-09-16T00:58:12.975Z,6.40
2022-09-16T00:59:13.047Z,6.40
2022-09-16T01:00:12.883Z,7.80
2022-09-16T01:01:12.963Z,6.40
2022-09-16T01:02:12.937Z,7.80
2022-09-16T01:03:12.790Z,4.10
2022-09-16T01:04:12.729Z,5.00
2022-09-16T01:05:12.838Z,4.70
2022-09-16T01:06:12.673Z,4.40
2022-09-16T01:07:12.651Z,7.80
2022-09-16T01:08:12.808Z,8.50
2022-09-16T01:09:12.683Z,6.50
2022-09-16T01:10:12.678Z,6.20
2022-09-16T01:11:12.607Z,6.80
2022-09-16T01:12:12.666Z,7.00
2022-09-16T01:13:12.656Z,5.90
2022-09-16T01:14:12.624Z,8.50
2022-09-16T01:15:12.650Z,10.20
2022-09-16T01:16:12.706Z,5.80
2022-09-16T01:17:12.599Z,7.30
2022-09-16T01:18:12.531Z,6.40
2022-09-16T01:19:12.523Z,4.00
2022-09-16T01:20:12.543Z,4.00
2022-09-16T01:21:12.555Z,5.50
2022-09-16T01:22:12.492Z,7.70
2022-09-16T01:23:12.466Z,9.10
2022-09-16T01:24:12.524Z,6.00
2022-09-16T01:25:12.544Z,7.30
2022-09-16T01:26:12.516Z,5.20
2022-09-16T01:27:12.480Z,6.50
2022-09-16T01:28:12.447Z,9.50
2022-09-16T01:29:12.571Z,5.90
2022-09-16T01:30:12.491Z,6.10
2022-09-16T01:31:12.519Z,9.90
2022-09-16T01:32:12.464Z,6.10
2022-09-16T01:33:12.521Z,4.80
2022-09-16T01:34:12.464Z,8.30
2022-09-16T01:35:12.452Z,6.90
2022-09-16T01:36:12.439Z,6.70
2022-09-16T01:37:12.472Z,8.40
2022-09-16T01:38:12.477Z,6.80
2022-09-16T01:39:12.412Z,8.00
2022-09-16T01:40:12.513Z,7.10
2022-09-16T01:41:12.364Z,4.80
2022-09-16T01:42:12.397Z,8.50
2022-09-16T01:43:12.345Z,8.60
2022-09-16T01:44:12.376Z,6.90
2022-09-16T01:45:12.424Z,7.10
2022-09-16T01:46:12.452Z,6.80
2022-09-16T01:47:12.592Z,6.40
2022-09-16T01:48:12.325Z,8.90
2022-09-16T01:49:12.366Z,12.10
2022-09-16T01:50:12.509Z,5.80
2022-09-16T01:51:12.417Z,6.20
2022-09-16T01:52:12.329Z,8.30
2022-09-16T01:53:12.393Z,12.20
2022-09-16T01:54:12.330Z,6.00
2022-09-16T01:55:12.298Z,6.00
2022-09-16T01:56:44.853Z,4.80
2022-09-16T01:57:12.141Z,7.90
2022-09-16T01:58:12.108Z,10.20
2022-09-16T01:59:12.109Z,5.50
2022-09-16T02:00:12.110Z,6.80
2022-09-16T02:01:12.644Z,10.30
2022-09-16T02:02:12.170Z,8.50
2022-09-16T02:03:12.071Z,4.50
2022-09-16T02:04:12.062Z,4.90
2022-09-16T02:05:12.014Z,6.40
2022-09-16T02:06:12.045Z,7.40
2022-09-16T02:07:13.031Z,7.70
2022-09-16T02:08:12.042Z,9.00
2022-09-16T02:09:12.013Z,7.40
2022-09-16T02:10:12.058Z,5.10
2022-09-16T02:11:12.001Z,6.70
2022-09-16T02:12:11.986Z,5.50
2022-09-16T02:13:11.958Z,10.90
2022-09-16T02:14:11.970Z,5.50
2022-09-16T02:15:11.962Z,7.20
2022-09-16T02:16:12.048Z,6.10
2022-09-16T02:17:11.930Z,5.40
2022-09-16T02:18:12.790Z,4.90
2022-09-16T02:19:11.926Z,5.60
2022-09-16T02:20:11.958Z,4.80
2022-09-16T02:21:11.943Z,7.30
2022-09-16T02:22:11.918Z,5.30
2022-09-16T02:23:12.631Z,6.70
2022-09-16T02:24:12.698Z,8.30
2022-09-16T02:25:11.914Z,7.90
2022-09-16T02:26:11.887Z,6.30
2022-09-16T02:27:11.871Z,9.50
2022-09-16T02:28:12.762Z,5.70
2022-09-16T02:29:11.815Z,7.20
2022-09-16T02:30:11.853Z,6.30
2022-09-16T02:31:11.912Z,9.80
2022-09-16T02:32:11.931Z,6.60
2022-09-16T02:33:11.830Z,6.60
2022-09-16T02:34:11.768Z,4.70
2022-09-16T02:35:11.754Z,8.10
2022-09-16T02:36:11.806Z,5.10
2022-09-16T02:37:11.766Z,7.00
2022-09-16T02:38:11.776Z,6.60
2022-09-16T02:39:11.730Z,4.90
2022-09-16T02:40:11.794Z,6.70
2022-09-16T02:41:11.871Z,7.60
2022-09-16T02:42:11.687Z,6.80
2022-09-16T02:43:11.664Z,8.10
2022-09-16T02:44:11.707Z,5.90
2022-09-16T02:45:11.643Z,10.50
2022-09-16T02:46:11.666Z,8.20
2022-09-16T02:47:11.635Z,7.90
2022-09-16T02:48:11.777Z,5.90
2022-09-16T02:49:11.619Z,7.90
2022-09-16T02:50:11.603Z,6.60
2022-09-16T02:51:11.560Z,6.10
2022-09-16T02:52:11.626Z,5.90
2022-09-16T02:53:11.643Z,7.90
2022-09-16T02:54:11.556Z,9.80
2022-09-16T02:55:11.557Z,8.00
2022-09-16T02:56:11.532Z,5.20
2022-09-16T02:57:11.530Z,6.20
2022-09-16T02:58:11.528Z,8.20
2022-09-16T02:59:11.542Z,6.60
2022-09-16T03:00:11.516Z,5.30
2022-09-16T03:01:11.532Z,8.50
2022-09-16T03:02:11.516Z,6.90
2022-09-16T03:03:11.560Z,7.80
2022-09-16T03:04:11.509Z,5.60
2022-09-16T03:05:11.481Z,7.60
2022-09-16T03:06:11.465Z,9.30
2022-09-16T03:07:11.425Z,6.30
2022-09-16T03:08:11.443Z,7.80
2022-09-16T03:09:11.412Z,7.20
2022-09-16T03:10:11.518Z,7.40
2022-09-16T03:11:11.414Z,6.50
2022-09-16T03:12:11.384Z,7.00
2022-09-16T03:13:11.377Z,5.00
2022-09-16T03:14:11.387Z,5.20
2022-09-16T03:15:11.496Z,9.00
2022-09-16T03:16:11.382Z,5.90
2022-09-16T03:17:11.336Z,6.50
2022-09-16T03:18:11.346Z,7.10
2022-09-16T03:19:11.337Z,6.10
2022-09-16T03:20:11.389Z,8.50
2022-09-16T03:21:11.316Z,8.20
2022-09-16T03:22:11.338Z,11.00
2022-09-16T03:23:11.287Z,6.20
2022-09-16T03:24:11.532Z,5.30
2022-09-16T03:25:11.274Z,7.90
2022-09-16T03:26:11.281Z,7.00
2022-09-16T03:27:11.273Z,9.60
2022-09-16T03:28:11.212Z,9.20
2022-09-16T03:29:11.217Z,7.80
2022-09-16T03:30:11.222Z,8.40
2022-09-16T03:31:11.279Z,5.50
2022-09-16T03:32:11.169Z,9.70
2022-09-16T03:33:11.213Z,5.80
2022-09-16T03:34:11.174Z,8.60
2022-09-16T03:35:11.221Z,8.00
2022-09-16T03:36:11.161Z,8.30
2022-09-16T03:37:11.171Z,7.50
2022-09-16T03:38:11.185Z,7.90
2022-09-16T03:39:11.113Z,6.70
2022-09-16T03:40:11.213Z,9.90
2022-09-16T03:41:11.090Z,8.80
2022-09-16T03:42:11.129Z,15.10
2022-09-16T03:43:11.070Z,5.70
2022-09-16T03:44:11.081Z,10.40
2022-09-16T03:45:11.049Z,10.20
2022-09-16T03:46:11.092Z,7.90
2022-09-16T03:47:12.066Z,8.80
2022-09-16T03:48:11.672Z,7.20
2022-09-16T03:49:11.034Z,9.20
2022-09-16T03:50:11.054Z,9.30
2022-09-16T03:51:11.000Z,11.00
2022-09-16T03:52:10.950Z,7.00
2022-09-16T03:53:10.994Z,9.30
2022-09-16T03:54:11.131Z,9.80
2022-09-16T03:55:10.949Z,5.50
2022-09-16T03:56:10.943Z,6.60
2022-09-16T03:57:10.939Z,7.60
2022-09-16T03:58:10.979Z,7.00
2022-09-16T03:59:10.944Z,9.60
2022-09-16T04:00:10.930Z,9.20
2022-09-16T04:01:10.946Z,7.60
2022-09-16T04:02:11.642Z,9.40
2022-09-16T04:03:11.301Z,11.30
2022-09-16T04:04:10.870Z,11.70
2022-09-16T04:05:10.856Z,9.00
2022-09-16T04:06:10.826Z,10.20
2022-09-16T04:07:10.823Z,8.70
2022-09-16T04:08:11.191Z,8.80
2022-09-16T04:09:10.830Z,8.90
2022-09-16T04:10:10.817Z,8.90
2022-09-16T04:11:10.770Z,7.70
2022-09-16T04:12:10.760Z,12.10
2022-09-16T04:13:10.770Z,6.90
2022-09-16T04:14:10.796Z,12.20
2022-09-16T04:15:11.618Z,7.00
2022-09-16T04:16:10.780Z,9.20
2022-09-16T04:17:10.704Z,7.60
2022-09-16T04:18:10.718Z,9.60
2022-09-16T04:19:10.878Z,6.50
2022-09-16T04:20:10.736Z,11.30
2022-09-16T04:21:10.673Z,8.40
2022-09-16T04:22:10.677Z,9.10
2022-09-16T04:23:10.684Z,10.20
2022-09-16T04:24:13.093Z,8.20
2022-09-16T04:25:10.808Z,8.90
2022-09-16T04:26:10.629Z,9.70
2022-09-16T04:27:10.628Z,8.20
2022-09-16T04:28:11.113Z,7.70
2022-09-16T04:29:10.637Z,7.80
2022-09-16T04:30:10.569Z,9.20
2022-09-16T04:31:10.707Z,7.10
2022-09-16T04:32:10.570Z,8.10
2022-09-16T04:33:10.581Z,12.40
2022-09-16T04:34:10.581Z,9.50
2022-09-16T04:35:10.557Z,11.00
2022-09-16T04:36:10.642Z,8.70
2022-09-16T04:37:10.743Z,8.20
2022-09-16T04:38:10.493Z,8.10
2022-09-16T04:39:10.513Z,8.80
2022-09-16T04:40:10.647Z,14.50
2022-09-16T04:41:10.473Z,10.50
2022-09-16T04:42:10.457Z,9.60
2022-09-16T04:43:10.446Z,12.40
2022-09-16T04:44:10.426Z,10.30
2022-09-16T04:45:10.494Z,9.90
2022-09-16T04:46:10.539Z,10.80
2022-09-16T04:47:10.521Z,12.00
2022-09-16T04:48:10.421Z,12.90
2022-09-16T04:49:11.247Z,7.60
2022-09-16T04:50:10.414Z,8.50
2022-09-16T04:51:10.375Z,10.00
2022-09-16T04:52:10.382Z,10.80
2022-09-16T04:53:10.403Z,12.20
2022-09-16T04:54:10.350Z,11.20
2022-09-16T04:55:10.346Z,14.50
2022-09-16T04:56:11.267Z,8.50
2022-09-16T04:57:10.535Z,11.00
2022-09-16T04:58:10.338Z,11.90
2022-09-16T04:59:10.318Z,8.30
2022-09-16T05:00:10.383Z,8.20
2022-09-16T05:01:10.378Z,14.10
2022-09-16T05:02:10.286Z,11.60
2022-09-16T05:03:10.317Z,9.80
2022-09-16T05:04:10.262Z,8.30
2022-09-16T05:05:10.285Z,10.80
2022-09-16T05:06:10.298Z,8.40
2022-09-16T05:07:10.261Z,15.70
2022-09-16T05:08:10.234Z,8.20
2022-09-16T05:09:10.235Z,8.80
2022-09-16T05:10:10.231Z,9.50
2022-09-16T05:11:10.206Z,12.00
2022-09-16T05:12:47.899Z,11.30
2022-09-16T05:13:43.155Z,8.90
2022-09-16T05:14:44.062Z,11.00
2022-09-16T05:15:47.561Z,10.70
2022-09-16T05:16:36.654Z,9.70
2022-09-16T05:17:51.581Z,11.20
2022-09-16T05:18:37.643Z,10.80
2022-09-16T05:19:42.523Z,11.20
2022-09-16T05:20:44.108Z,11.10
2022-09-16T05:21:10.456Z,9.90
2022-09-16T05:22:44.992Z,11.30
2022-09-16T05:23:46.739Z,10.30
2022-09-16T05:24:43.641Z,15.10
2022-09-16T05:25:11.826Z,9.80
2022-09-16T05:26:45.254Z,9.00
2022-09-16T05:27:10.059Z,12.20
2022-09-16T05:28:10.002Z,12.00
2022-09-16T05:29:09.990Z,11.70
2022-09-16T05:30:09.990Z,12.00
2022-09-16T05:31:10.092Z,12.20
2022-09-16T05:32:10.045Z,9.50
2022-09-16T05:33:09.954Z,11.40
2022-09-16T05:34:10.010Z,9.90
2022-09-16T05:35:09.959Z,11.00
2022-09-16T05:36:09.979Z,9.80
2022-09-16T05:37:09.914Z,9.10
2022-09-16T05:38:09.903Z,9.00
2022-09-16T05:39:25.969Z,9.10
2022-09-16T05:40:12.735Z,8.10
2022-09-16T05:41:09.889Z,8.90
2022-09-16T05:42:09.881Z,10.60
2022-09-16T05:43:09.857Z,12.60
2022-09-16T05:44:09.894Z,10.00
2022-09-16T05:45:09.909Z,8.60
2022-09-16T05:46:09.897Z,13.10
2022-09-16T05:47:09.913Z,11.10
2022-09-16T05:48:09.850Z,7.10
2022-09-16T05:49:09.773Z,13.80
2022-09-16T05:50:10.466Z,8.50
2022-09-16T05:51:10.357Z,11.70
2022-09-16T05:52:09.819Z,10.60
2022-09-16T05:53:09.758Z,10.70
2022-09-16T05:54:09.746Z,11.90
2022-09-16T05:55:09.722Z,11.10
2022-09-16T05:56:09.715Z,12.10
2022-09-16T05:57:09.693Z,8.90
2022-09-16T05:58:09.702Z,12.60
2022-09-16T05:59:09.854Z,10.00
2022-09-16T06:00:09.781Z,11.20
2022-09-16T06:01:09.720Z,11.60
2022-09-16T06:02:09.723Z,9.50
2022-09-16T06:03:09.648Z,12.10
2022-09-16T06:04:09.719Z,10.20
2022-09-16T06:05:09.647Z,13.40
2022-09-16T06:06:09.599Z,11.20
2022-09-16T06:07:09.988Z,11.00
2022-09-16T06:08:09.632Z,10.40
2022-09-16T06:09:09.612Z,11.30
2022-09-16T06:10:09.546Z,12.10
2022-09-16T06:11:10.480Z,8.10
2022-09-16T06:12:09.608Z,10.40
2022-09-16T06:13:09.528Z,10.60
2022-09-16T06:14:09.552Z,12.10
2022-09-16T06:15:09.572Z,13.50
2022-09-16T06:16:09.647Z,13.10
2022-09-16T06:17:09.656Z,16.70
2022-09-16T06:18:09.500Z,12.90
2022-09-16T06:19:09.551Z,12.30
2022-09-16T06:20:09.561Z,10.40
2022-09-16T06:21:09.542Z,8.40
2022-09-16T06:22:09.450Z,9.20
2022-09-16T06:23:09.614Z,12.40
2022-09-16T06:24:09.410Z,12.20
2022-09-16T06:25:09.966Z,10.80
2022-09-16T06:26:09.417Z,10.80
2022-09-16T06:27:09.459Z,8.20
2022-09-16T06:28:09.410Z,9.60
2022-09-16T06:29:09.489Z,13.20
2022-09-16T06:30:09.506Z,9.50
2022-09-16T06:31:09.510Z,12.40
2022-09-16T06:32:09.403Z,8.30
2022-09-16T06:33:10.343Z,11.40
2022-09-16T06:34:09.335Z,11.40
2022-09-16T06:35:09.311Z,7.90
2022-09-16T06:36:09.390Z,11.70
2022-09-16T06:37:09.377Z,11.10
2022-09-16T06:38:09.541Z,9.40
2022-09-16T06:39:09.280Z,9.00
2022-09-16T06:40:09.454Z,8.20
2022-09-16T06:41:09.272Z,14.00
2022-09-16T06:42:09.246Z,12.00
2022-09-16T06:43:09.279Z,10.40
2022-09-16T06:44:09.289Z,15.70
2022-09-16T06:45:09.920Z,9.70
2022-09-16T06:46:09.267Z,12.30
2022-09-16T06:47:09.353Z,11.10
2022-09-16T06:48:09.278Z,8.40
2022-09-16T06:49:09.969Z,7.10
2022-09-16T06:50:09.605Z,16.60
2022-09-16T06:51:09.908Z,10.90
2022-09-16T06:52:09.359Z,9.70
2022-09-16T06:53:09.229Z,11.70
2022-09-16T06:54:10.382Z,9.70
2022-09-16T06:55:09.950Z,11.30
2022-09-16T06:56:09.913Z,12.20
2022-09-16T06:57:12.344Z,9.00
2022-09-16T06:58:10.133Z,9.60
2022-09-16T06:59:09.214Z,8.80
2022-09-16T07:00:09.971Z,9.20
2022-09-16T07:01:09.935Z,11.10
2022-09-16T07:02:09.273Z,9.90
2022-09-16T07:03:09.046Z,9.30
2022-09-16T07:04:09.050Z,10.10
2022-09-16T07:05:09.027Z,13.20
2022-09-16T07:06:09.002Z,8.70
2022-09-16T07:07:10.543Z,9.90
2022-09-16T07:08:10.056Z,10.40
2022-09-16T07:09:09.182Z,10.30
2022-09-16T07:10:08.959Z,10.20
2022-09-16T07:11:09.106Z,12.80
2022-09-16T07:12:09.086Z,14.00
2022-09-16T07:13:08.926Z,10.10
2022-09-16T07:14:08.918Z,11.40
2022-09-16T07:15:09.950Z,7.70
2022-09-16T07:16:13.319Z,9.60
2022-09-16T07:17:10.970Z,9.20
2022-09-16T07:18:09.031Z,12.40
2022-09-16T07:19:09.438Z,12.30
2022-09-16T07:20:08.906Z,9.00
2022-09-16T07:21:08.894Z,9.20
2022-09-16T07:22:09.746Z,13.50
2022-09-16T07:23:09.203Z,10.30
2022-09-16T07:24:08.935Z,9.50
2022-09-16T07:25:08.862Z,8.40
2022-09-16T07:26:08.936Z,8.80
2022-09-16T07:27:08.851Z,7.90
2022-09-16T07:28:08.898Z,12.80
2022-09-16T07:29:08.760Z,9.40
2022-09-16T07:30:09.299Z,7.30
2022-09-16T07:31:09.948Z,7.70
2022-09-16T07:32:08.797Z,7.20
2022-09-16T07:33:08.750Z,7.40
2022-09-16T07:34:08.845Z,9.10
2022-09-16T07:35:08.718Z,9.90
2022-09-16T07:36:08.725Z,11.30
2022-09-16T07:37:08.701Z,5.90
2022-09-16T07:38:08.717Z,7.60
2022-09-16T07:39:09.329Z,7.10
2022-09-16T07:40:08.849Z,11.10
2022-09-16T07:41:08.705Z,7.50
2022-09-16T07:42:08.752Z,8.50
2022-09-16T07:43:08.661Z,9.00
2022-09-16T07:44:08.767Z,8.10
2022-09-16T07:45:08.620Z,9.20
2022-09-16T07:46:08.675Z,8.30
2022-09-16T07:47:08.727Z,7.80
2022-09-16T07:48:08.597Z,6.80
2022-09-16T07:49:08.626Z,7.90
2022-09-16T07:50:08.563Z,6.70
2022-09-16T07:51:08.548Z,7.90
2022-09-16T07:52:08.799Z,7.60
2022-09-16T07:53:08.595Z,6.50
2022-09-16T07:54:08.543Z,7.90
2022-09-16T07:55:08.504Z,9.70
2022-09-16T07:56:08.579Z,8.00
2022-09-16T07:57:08.495Z,4.80
2022-09-16T07:58:08.567Z,7.90
2022-09-16T07:59:08.499Z,6.30
2022-09-16T08:00:09.327Z,7.80
2022-09-16T08:01:08.498Z,8.90
2022-09-16T08:02:08.507Z,6.90
2022-09-16T08:03:08.557Z,6.00
2022-09-16T08:04:08.555Z,7.10
2022-09-16T08:05:08.465Z,7.70
2022-09-16T08:06:08.436Z,10.40
2022-09-16T08:07:08.414Z,7.10
2022-09-16T08:08:08.439Z,4.50
2022-09-16T08:09:37.196Z,6.90
2022-09-16T08:10:10.987Z,9.80
2022-09-16T08:11:08.333Z,7.20
2022-09-16T08:12:08.402Z,5.30
2022-09-16T08:13:08.312Z,9.80
2022-09-16T08:14:08.486Z,6.40
2022-09-16T08:15:08.290Z,9.80
2022-09-16T08:16:08.323Z,6.70
2022-09-16T08:17:08.270Z,6.30
2022-09-16T08:18:08.257Z,6.00
2022-09-16T08:19:08.293Z,9.40
2022-09-16T08:20:08.484Z,8.70
2022-09-16T08:21:08.237Z,5.30
2022-09-16T08:22:08.242Z,5.90
2022-09-16T08:23:08.213Z,5.90
2022-09-16T08:24:09.198Z,6.70
2022-09-16T08:25:08.235Z,3.70
2022-09-16T08:26:08.189Z,7.30
2022-09-16T08:27:08.168Z,4.20
2022-09-16T08:28:08.239Z,4.40
2022-09-16T08:29:09.868Z,4.50
2022-09-16T08:30:11.253Z,8.70
2022-09-16T08:31:08.480Z,4.40
2022-09-16T08:32:08.337Z,5.70
2022-09-16T08:33:08.200Z,4.70
2022-09-16T08:34:08.089Z,5.50
2022-09-16T08:35:08.126Z,2.50
2022-09-16T08:36:08.073Z,6.50
2022-09-16T08:37:08.042Z,4.60
2022-09-16T08:38:08.831Z,3.70
2022-09-16T08:39:08.280Z,2.90
2022-09-16T08:40:08.322Z,7.00
2022-09-16T08:41:07.997Z,2.30
2022-09-16T08:42:08.071Z,4.70
2022-09-16T08:43:08.001Z,4.70
2022-09-16T08:44:08.061Z,3.00
2022-09-16T08:45:08.023Z,5.00
2022-09-16T08:46:08.129Z,7.00
2022-09-16T08:47:07.906Z,4.60
2022-09-16T08:48:07.941Z,5.90
2022-09-16T08:49:07.987Z,5.70
2022-09-16T08:50:07.900Z,5.60
2022-09-16T08:51:07.932Z,6.00
2022-09-16T08:52:08.828Z,3.30
2022-09-16T08:53:07.868Z,4.80
2022-09-16T08:54:07.861Z,4.90
2022-09-16T08:55:07.899Z,4.40
2022-09-16T08:56:08.012Z,4.40
2022-09-16T08:57:07.880Z,3.30
2022-09-16T08:58:07.837Z,3.00
2022-09-16T08:59:07.807Z,4.80
2022-09-16T09:00:07.898Z,5.20
2022-09-16T09:01:07.995Z,4.40
2022-09-16T09:02:09.713Z,3.30
2022-09-16T09:03:08.756Z,4.60
2022-09-16T09:04:08.173Z,4.90
2022-09-16T09:05:07.770Z,5.50
2022-09-16T09:06:07.811Z,4.00
2022-09-16T09:07:07.772Z,4.50
2022-09-16T09:08:07.764Z,5.10
2022-09-16T09:09:07.762Z,7.00
2022-09-16T09:10:10.163Z,3.90
2022-09-16T09:11:07.748Z,5.00
2022-09-16T09:12:09.271Z,7.00
2022-09-16T09:13:08.263Z,5.40
2022-09-16T09:14:07.654Z,3.70
2022-09-16T09:15:07.632Z,5.20
2022-09-16T09:16:07.808Z,6.00
2022-09-16T09:17:07.706Z,5.90
2022-09-16T09:18:08.220Z,4.30
2022-09-16T09:19:07.629Z,5.60
2022-09-16T09:20:07.636Z,6.80
2022-09-16T09:21:07.611Z,4.70
2022-09-16T09:22:07.606Z,4.50
2022-09-16T09:23:07.633Z,5.90
2022-09-16T09:24:07.574Z,6.90
2022-09-16T09:25:07.594Z,6.60
2022-09-16T09:26:08.338Z,6.40
2022-09-16T09:27:07.554Z,5.60
2022-09-16T09:28:07.626Z,6.60
2022-09-16T09:29:07.537Z,8.20
2022-09-16T09:30:07.535Z,5.70
2022-09-16T09:31:10.713Z,3.90
2022-09-16T09:32:08.693Z,4.20
2022-09-16T09:33:22.174Z,3.60
2022-09-16T09:34:09.469Z,4.10
2022-09-16T09:35:07.473Z,5.10
2022-09-16T09:36:07.495Z,3.70
2022-09-16T09:37:07.502Z,3.90
2022-09-16T09:38:07.375Z,7.00
2022-09-16T09:39:07.443Z,3.30
2022-09-16T09:40:07.447Z,4.70
2022-09-16T09:41:07.367Z,3.10
2022-09-16T09:42:07.668Z,4.40
2022-09-16T09:43:07.385Z,6.40
2022-09-16T09:44:07.388Z,7.10
2022-09-16T09:45:07.607Z,5.50
2022-09-16T09:46:07.447Z,4.70
2022-09-16T09:47:08.344Z,5.40
2022-09-16T09:48:07.404Z,3.80
2022-09-16T09:49:07.332Z,5.30
2022-09-16T09:50:07.271Z,4.10
2022-09-16T09:51:07.323Z,6.40
2022-09-16T09:52:07.280Z,5.50
2022-09-16T09:53:07.291Z,4.70
2022-09-16T09:54:07.305Z,3.50
2022-09-16T09:55:07.268Z,4.70
2022-09-16T09:56:07.259Z,5.30
2022-09-16T09:57:07.229Z,4.20
2022-09-16T09:58:07.223Z,2.70
2022-09-16T09:59:07.366Z,5.10
2022-09-16T10:00:07.201Z,4.50
2022-09-16T10:01:07.240Z,6.80
2022-09-16T10:02:07.247Z,3.40
2022-09-16T10:03:07.126Z,4.80
2022-09-16T10:04:07.247Z,2.80
2022-09-16T10:05:07.124Z,2.60
2022-09-16T10:06:07.090Z,4.50
2022-09-16T10:07:07.122Z,3.00
2022-09-16T10:08:07.474Z,2.60
2022-09-16T10:09:07.088Z,1.90
2022-09-16T10:10:07.137Z,2.90
2022-09-16T10:11:07.900Z,3.50
2022-09-16T10:12:07.012Z,3.10
2022-09-16T10:13:07.026Z,5.50
2022-09-16T10:14:07.201Z,5.90
2022-09-16T10:15:06.978Z,3.50
2022-09-16T10:16:08.852Z,3.50
2022-09-16T10:17:07.022Z,4.00
2022-09-16T10:18:06.956Z,5.70
2022-09-16T10:19:06.967Z,3.60
2022-09-16T10:20:07.027Z,3.60
2022-09-16T10:21:07.032Z,5.70
2022-09-16T10:22:06.956Z,4.50
2022-09-16T10:23:06.919Z,5.60
2022-09-16T10:24:06.857Z,4.10
2022-09-16T10:25:07.663Z,5.20
2022-09-16T10:26:07.853Z,2.90
2022-09-16T10:27:06.854Z,2.70
2022-09-16T10:28:06.871Z,3.40
2022-09-16T10:29:06.843Z,5.10
2022-09-16T10:30:06.889Z,5.60
2022-09-16T10:31:07.562Z,4.20
2022-09-16T10:32:06.941Z,4.20
2022-09-16T10:33:06.827Z,6.40
2022-09-16T10:34:06.779Z,3.90
2022-09-16T10:35:07.006Z,5.10
2022-09-16T10:36:06.840Z,4.10
2022-09-16T10:37:06.747Z,4.00
2022-09-16T10:38:06.791Z,4.50
2022-09-16T10:39:06.880Z,3.50
2022-09-16T10:40:06.885Z,3.80
2022-09-16T10:41:06.751Z,5.20
2022-09-16T10:42:06.780Z,3.40
2022-09-16T10:43:06.771Z,4.30
2022-09-16T10:44:06.755Z,4.10
2022-09-16T10:45:06.827Z,4.40
2022-09-16T10:46:06.688Z,6.20
2022-09-16T10:47:06.648Z,3.80
2022-09-16T10:48:07.345Z,3.40
2022-09-16T10:49:06.983Z,4.50
2022-09-16T10:50:06.587Z,4.10
2022-09-16T10:51:06.553Z,4.30
2022-09-16T10:52:06.751Z,3.20
2022-09-16T10:53:06.572Z,2.50
2022-09-16T10:54:06.522Z,4.90
2022-09-16T10:55:06.544Z,6.60
2022-09-16T10:56:06.480Z,4.20
2022-09-16T10:57:06.479Z,3.90
2022-09-16T10:58:06.518Z,3.40
2022-09-16T10:59:07.407Z,3.20
2022-09-16T11:00:06.475Z,3.20
2022-09-16T11:01:06.537Z,4.90
2022-09-16T11:02:06.595Z,4.10
2022-09-16T11:03:06.443Z,4.80
2022-09-16T11:04:06.400Z,5.80
2022-09-16T11:05:06.563Z,3.80
2022-09-16T11:06:06.371Z,3.40
2022-09-16T11:07:06.428Z,5.70
2022-09-16T11:08:06.466Z,5.10
2022-09-16T11:09:06.372Z,3.10
2022-09-16T11:10:06.295Z,9.30
2022-09-16T11:11:09.735Z,9.30
2022-09-16T11:12:10.431Z,9.00
2022-09-16T11:13:06.347Z,8.60
2022-09-16T11:14:06.260Z,10.10
2022-09-16T11:15:06.291Z,9.10
2022-09-16T11:16:06.287Z,11.00
2022-09-16T11:17:06.256Z,6.30
2022-09-16T11:18:06.269Z,5.00
2022-09-16T11:19:06.240Z,5.50
2022-09-16T11:20:06.186Z,5.10
2022-09-16T11:21:06.229Z,3.60
2022-09-16T11:22:06.185Z,3.10
2022-09-16T11:23:06.130Z,8.90
2022-09-16T11:24:06.255Z,8.90
2022-09-16T11:25:06.208Z,8.00
2022-09-16T11:26:06.188Z,4.60
2022-09-16T11:27:06.089Z,2.90
2022-09-16T11:28:06.189Z,3.60
2022-09-16T11:29:06.069Z,2.40
2022-09-16T11:30:06.422Z,2.90
2022-09-16T11:31:06.101Z,5.50
2022-09-16T11:32:06.200Z,3.50
2022-09-16T11:33:06.122Z,3.20
2022-09-16T11:34:06.113Z,6.00
2022-09-16T11:35:06.023Z,4.30
2022-09-16T11:36:06.073Z,4.20
2022-09-16T11:37:05.969Z,4.90
2022-09-16T11:38:05.971Z,3.60
2022-09-16T11:39:05.993Z,1.90
2022-09-16T11:40:06.166Z,3.40
2022-09-16T11:41:05.946Z,3.50
2022-09-16T11:42:05.933Z,3.70
2022-09-16T11:43:06.000Z,6.50
2022-09-16T11:44:05.914Z,5.90
2022-09-16T11:45:06.997Z,5.50
2022-09-16T11:46:05.980Z,4.40
2022-09-16T11:47:05.909Z,5.10
2022-09-16T11:48:05.924Z,4.20
2022-09-16T11:49:05.925Z,5.60
2022-09-16T11:50:05.897Z,5.20
2022-09-16T11:51:05.842Z,3.90
2022-09-16T11:52:05.839Z,2.70
2022-09-16T11:53:06.797Z,6.10
2022-09-16T11:54:05.918Z,3.40
2022-09-16T11:55:06.323Z,1.70
2022-09-16T11:56:05.974Z,5.10
2022-09-16T11:57:06.059Z,3.60
2022-09-16T11:58:05.828Z,4.20
2022-09-16T11:59:05.724Z,5.20
2022-09-16T12:00:05.738Z,6.10
2022-09-16T12:01:05.781Z,2.60
2022-09-16T12:02:05.789Z,6.10
2022-09-16T12:03:05.742Z,3.10
2022-09-16T12:04:05.863Z,3.20
2022-09-16T12:05:05.757Z,5.00
2022-09-16T12:06:06.478Z,3.70
2022-09-16T12:07:05.810Z,2.80
2022-09-16T12:08:05.671Z,5.20
2022-09-16T12:09:07.750Z,6.30
2022-09-16T12:10:05.890Z,2.50
2022-09-16T12:11:05.614Z,9.90
2022-09-16T12:12:05.766Z,5.90
2022-09-16T12:13:05.586Z,4.10
2022-09-16T12:14:06.435Z,2.70
2022-09-16T12:15:06.058Z,3.70
2022-09-16T12:16:06.546Z,5.20
2022-09-16T12:17:05.539Z,3.60
2022-09-16T12:18:06.654Z,5.50
2022-09-16T12:19:06.149Z,3.70
2022-09-16T12:20:05.546Z,3.50
2022-09-16T12:21:05.504Z,2.10
2022-09-16T12:22:05.526Z,3.00
2022-09-16T12:23:05.530Z,4.40
2022-09-16T12:24:05.476Z,2.00
2022-09-16T12:25:05.512Z,3.70
2022-09-16T12:26:05.499Z,2.70
2022-09-16T12:27:05.459Z,3.20
2022-09-16T12:28:05.534Z,4.00
2022-09-16T12:29:05.418Z,2.70
2022-09-16T12:30:05.430Z,3.40
2022-09-16T12:31:05.441Z,3.20
2022-09-16T12:32:05.459Z,2.70
2022-09-16T12:33:06.801Z,3.00
2022-09-16T12:34:05.391Z,2.00
2022-09-16T12:35:05.738Z,3.80
2022-09-16T12:36:38.057Z,4.00
2022-09-16T12:37:05.891Z,3.30
2022-09-16T12:38:37.731Z,5.90
2022-09-16T12:39:39.013Z,3.30
2022-09-16T12:40:38.099Z,4.10
2022-09-16T12:41:38.985Z,4.50
2022-09-16T12:42:05.312Z,2.10
2022-09-16T12:43:37.783Z,5.00
2022-09-16T12:47:01.971Z,5.10
2022-09-16T12:48:36.697Z,6.80
2022-09-16T12:49:35.553Z,5.10
2022-09-16T12:50:37.708Z,5.20
2022-09-16T12:51:35.525Z,4.70
2022-09-16T12:52:03.103Z,5.00
2022-09-16T12:53:03.217Z,4.90
2022-09-16T12:54:03.485Z,4.70
2022-09-16T12:55:09.370Z,4.40
2022-09-16T12:56:05.097Z,1.50
2022-09-16T12:57:03.122Z,5.20
2022-09-16T12:58:02.989Z,4.00
2022-09-16T12:59:03.133Z,4.90
2022-09-16T13:00:02.977Z,7.70
2022-09-16T13:01:02.942Z,5.30
2022-09-16T13:02:03.126Z,6.10
2022-09-16T13:03:03.045Z,3.50
2022-09-16T13:04:02.966Z,4.80
2022-09-16T13:05:03.068Z,4.10
2022-09-16T13:06:02.963Z,8.20
2022-09-16T13:07:02.898Z,3.60
2022-09-16T13:08:02.914Z,3.50
2022-09-16T13:09:03.042Z,5.30
2022-09-16T13:10:02.950Z,5.90
2022-09-16T13:11:35.529Z,4.80
2022-09-16T13:13:04.867Z,4.70
2022-09-16T13:14:02.896Z,5.00
2022-09-16T13:15:03.012Z,4.50
2022-09-16T13:16:03.661Z,4.70
2022-09-16T13:17:02.847Z,5.20
2022-09-16T13:18:02.962Z,4.40